Time;durP1;ratioP1;P1;durP2;ratioP2;P2;SDS_P1;SDS_P2;PMS_P1;PMS_P2;Temp;Humidity;BMP_temperature;BMP_pressure;BME280_temperature;BME280_humidity;BME280_pressure;Samples;Min_cycle;Max_cycle;Signal;HPM_P1;HPM_P2
2022/06/08 00:00:58;;;;;;;10.23;9.13;;;18.00;99.90;;;;;;5085445;28;20749;-44
2022/06/08 00:03:32;;;;;;;11.07;9.47;;;17.90;99.90;;;;;;5081290;28;20441;-51
2022/06/08 00:05:59;;;;;;;12.67;10.23;;;17.80;99.90;;;;;;5084299;28;20413;-45
2022/06/08 00:08:27;;;;;;;13.27;11.60;;;17.80;99.90;;;;;;5080046;28;20726;-46
2022/06/08 00:10:54;;;;;;;14.60;10.07;;;17.80;99.90;;;;;;5082682;28;20428;-46
2022/06/08 00:13:22;;;;;;;10.23;8.80;;;17.90;99.90;;;;;;5087067;28;20467;-48
2022/06/08 00:15:49;;;;;;;11.10;9.73;;;17.90;99.90;;;;;;5081882;28;20451;-46
2022/06/08 00:18:16;;;;;;;10.30;9.23;;;18.00;99.90;;;;;;5085631;28;20693;-49
2022/06/08 00:20:44;;;;;;;9.33;8.30;;;17.90;99.90;;;;;;5080936;28;20458;-49
2022/06/08 00:23:11;;;;;;;10.90;9.50;;;17.90;99.90;;;;;;5080419;28;20437;-49
2022/06/08 00:25:39;;;;;;;12.30;9.80;;;17.90;99.90;;;;;;5085605;28;20505;-46
2022/06/08 00:28:07;;;;;;;11.20;9.17;;;18.00;99.90;;;;;;5080521;28;20438;-45
2022/06/08 00:30:35;;;;;;;10.73;9.13;;;17.90;99.90;;;;;;5083349;28;20422;-48
2022/06/08 00:33:02;;;;;;;10.70;9.63;;;17.90;99.90;;;;;;5081032;28;20490;-48
2022/06/08 00:35:30;;;;;;;10.37;8.63;;;18.00;99.90;;;;;;5076237;28;20448;-47
2022/06/08 00:37:57;;;;;;;10.43;9.33;;;18.00;99.90;;;;;;5081187;28;20412;-45
2022/06/08 00:40:38;;;;;;;13.77;10.07;;;18.00;99.90;;;;;;5078975;28;20417;-45
2022/06/08 00:43:05;;;;;;;10.07;8.80;;;18.00;99.90;;;;;;5080752;28;20439;-44
2022/06/08 00:45:32;;;;;;;11.23;9.17;;;18.10;99.90;;;;;;5078306;28;20421;-48
2022/06/08 00:48:06;;;;;;;14.83;7.30;;;18.10;99.90;;;;;;5078053;28;20415;-45
2022/06/08 00:50:47;;;;;;;10.70;8.70;;;17.90;99.90;;;;;;5070997;28;20430;-48
2022/06/08 00:53:19;;;;;;;9.50;7.77;;;17.90;99.90;;;;;;5079701;28;20468;-47
2022/06/08 00:55:46;;;;;;;10.37;9.27;;;17.80;99.90;;;;;;5077023;28;20686;-49
2022/06/08 00:58:23;;;;;;;11.50;10.30;;;17.90;99.90;;;;;;5083262;28;20423;-43
2022/06/08 01:00:52;;;;;;;9.60;8.50;;;17.90;99.90;;;;;;5084526;28;20611;-45
2022/06/08 01:03:20;;;;;;;10.00;8.70;;;17.90;99.90;;;;;;5081481;28;20432;-45
2022/06/08 01:05:51;;;;;;;13.20;10.80;;;17.90;99.90;;;;;;5083699;28;20415;-51
2022/06/08 01:08:33;;;;;;;8.83;7.93;;;17.90;99.90;;;;;;5080198;28;20426;-45
2022/06/08 01:11:05;;;;;;;9.03;8.00;;;17.50;99.90;;;;;;5082667;28;20620;-43
2022/06/08 01:13:35;;;;;;;10.60;9.70;;;17.50;99.90;;;;;;5071150;28;20423;-44
2022/06/08 01:16:11;;;;;;;11.20;9.10;;;17.50;99.90;;;;;;5081332;28;20425;-49
2022/06/08 01:18:39;;;;;;;10.33;9.23;;;17.60;99.90;;;;;;5071322;28;20501;-46
2022/06/08 01:21:21;;;;;;;10.20;9.00;;;17.60;99.90;;;;;;5080375;28;20795;-47
2022/06/08 01:23:52;;;;;;;11.07;9.63;;;17.70;99.90;;;;;;5076252;28;20497;-44
2022/06/08 01:26:29;;;;;;;14.57;9.80;;;17.70;99.90;;;;;;5084874;28;20416;-44
2022/06/08 01:29:15;;;;;;;11.57;8.63;;;17.50;99.90;;;;;;5081272;28;20773;-55
2022/06/08 01:32:11;;;;;;;13.23;10.23;;;17.60;99.90;;;;;;5076891;28;20486;-50
2022/06/08 01:34:38;;;;;;;13.73;10.80;;;17.70;99.90;;;;;;5072431;28;20482;-47
2022/06/08 01:37:08;;;;;;;13.37;10.57;;;17.80;99.90;;;;;;5081517;28;20684;-49
2022/06/08 01:39:56;;;;;;;10.63;9.30;;;17.80;99.90;;;;;;5081196;28;20447;-47
2022/06/08 01:42:33;;;;;;;10.40;8.73;;;17.70;99.90;;;;;;5086219;28;20465;-45
2022/06/08 01:48:07;;;;;;;9.60;8.53;;;17.60;99.90;;;;;;5087792;28;20444;-48
2022/06/08 01:51:01;;;;;;;13.83;10.60;;;17.60;99.90;;;;;;5074032;28;20443;-46
2022/06/08 01:53:44;;;;;;;11.10;10.00;;;17.60;99.90;;;;;;5077305;28;20451;-46
2022/06/08 01:56:44;;;;;;;10.77;9.67;;;17.60;99.90;;;;;;5090273;28;20474;-50
2022/06/08 01:59:23;;;;;;;14.27;11.20;;;17.50;99.90;;;;;;5084050;28;20886;-47
2022/06/08 02:02:23;;;;;;;12.23;10.17;;;17.50;99.90;;;;;;5086296;28;20408;-44
2022/06/08 02:05:14;;;;;;;11.80;10.07;;;17.40;99.90;;;;;;5088175;28;20416;-44
2022/06/08 02:07:48;;;;;;;16.20;11.70;;;17.40;99.90;;;;;;5074873;28;20454;-47
2022/06/08 02:10:54;;;;;;;11.80;9.53;;;17.20;99.90;;;;;;5086507;28;20485;-45
2022/06/08 02:13:52;;;;;;;14.77;10.37;;;17.30;99.90;;;;;;5089289;28;20738;-48
2022/06/08 02:16:44;;;;;;;18.50;12.80;;;17.30;99.90;;;;;;5070449;28;20425;-47
2022/06/08 02:19:17;;;;;;;17.80;12.30;;;17.30;99.90;;;;;;5082826;28;20659;-51
2022/06/08 02:21:55;;;;;;;14.57;11.93;;;17.20;99.90;;;;;;5087498;28;20403;-46
2022/06/08 02:24:34;;;;;;;14.10;11.83;;;17.20;99.90;;;;;;5084348;28;21234;-45
2022/06/08 02:27:11;;;;;;;16.07;12.50;;;17.30;99.90;;;;;;5088142;28;20654;-48
2022/06/08 02:30:08;;;;;;;13.40;11.67;;;17.40;99.90;;;;;;5076451;28;20426;-44
2022/06/08 02:35:32;;;;;;;16.83;12.97;;;17.50;99.90;;;;;;5082004;28;20441;-45
2022/06/08 02:38:09;;;;;;;19.50;14.03;;;17.50;99.90;;;;;;5082623;28;20420;-51
2022/06/08 02:40:43;;;;;;;17.67;12.83;;;17.40;99.90;;;;;;5077923;28;20413;-47
2022/06/08 02:43:19;;;;;;;15.37;12.20;;;17.40;99.90;;;;;;5088407;28;20826;-47
2022/06/08 02:45:54;;;;;;;14.83;12.73;;;17.50;99.90;;;;;;5082014;28;20443;-47
2022/06/08 02:48:21;;;;;;;15.23;12.07;;;17.50;99.90;;;;;;5086203;28;20438;-47
2022/06/08 02:50:55;;;;;;;16.50;12.67;;;17.60;99.90;;;;;;5079992;28;20418;-47
2022/06/08 02:53:22;;;;;;;15.10;11.10;;;17.50;99.90;;;;;;5084531;28;20455;-49
2022/06/08 02:56:00;;;;;;;16.00;10.87;;;17.50;99.90;;;;;;5087958;28;20611;-47
2022/06/08 02:58:53;;;;;;;18.57;13.53;;;17.60;99.90;;;;;;5082862;28;20405;-44
2022/06/08 03:01:28;;;;;;;17.07;12.83;;;17.60;99.90;;;;;;5057483;28;20638;-47
2022/06/08 03:04:01;;;;;;;15.90;13.17;;;17.60;99.90;;;;;;5077125;28;20429;-48
2022/06/08 03:06:40;;;;;;;14.00;12.43;;;17.70;99.90;;;;;;5069885;28;20438;-51
2022/06/08 03:09:11;;;;;;;14.80;11.13;;;17.60;99.90;;;;;;5077530;28;20395;-46
2022/06/08 03:11:43;;;;;;;18.10;13.67;;;17.60;99.90;;;;;;5078073;28;20438;-48
2022/06/08 03:14:12;;;;;;;14.27;10.40;;;17.70;99.90;;;;;;5077851;28;20458;-51
2022/06/08 03:16:51;;;;;;;22.13;13.00;;;17.70;99.90;;;;;;5078342;28;20432;-42
2022/06/08 03:19:18;;;;;;;13.73;10.77;;;17.70;99.90;;;;;;5077764;28;20413;-46
2022/06/08 03:21:47;;;;;;;11.97;10.70;;;17.80;99.90;;;;;;5077846;28;20431;-45
2022/06/08 03:24:16;;;;;;;12.53;10.93;;;17.80;99.90;;;;;;5077566;28;20436;-53
2022/06/08 03:26:48;;;;;;;14.63;11.93;;;17.80;99.90;;;;;;5079257;28;20421;-48
2022/06/08 03:29:15;;;;;;;16.83;12.40;;;17.90;99.90;;;;;;5078454;28;20422;-44
2022/06/08 03:31:43;;;;;;;15.70;13.77;;;17.80;99.90;;;;;;5080062;28;20732;-49
2022/06/08 03:34:10;;;;;;;21.53;12.20;;;17.90;99.90;;;;;;5078670;28;20458;-46
2022/06/08 03:36:38;;;;;;;14.90;10.53;;;17.90;99.90;;;;;;5077390;28;20520;-45
2022/06/08 03:39:06;;;;;;;14.60;11.23;;;18.00;99.90;;;;;;5077594;28;20434;-50
2022/06/08 03:41:34;;;;;;;12.87;11.37;;;18.00;99.90;;;;;;5077165;28;20420;-45
2022/06/08 03:44:03;;;;;;;15.80;13.23;;;17.90;99.90;;;;;;5077199;28;20468;-48
2022/06/08 03:46:35;;;;;;;12.97;11.10;;;18.00;99.90;;;;;;5069033;28;20752;-47
2022/06/08 03:49:04;;;;;;;15.53;12.77;;;18.20;99.90;;;;;;5092550;28;20426;-45
2022/06/08 03:51:36;;;;;;;13.67;12.23;;;18.20;99.90;;;;;;5094083;28;20420;-45
2022/06/08 03:54:16;;;;;;;15.17;10.50;;;18.10;99.90;;;;;;5094457;28;20446;-45
2022/06/08 03:56:55;;;;;;;13.80;11.40;;;18.20;99.90;;;;;;5093073;28;20645;-45
2022/06/08 03:59:24;;;;;;;12.60;11.30;;;18.20;99.90;;;;;;5090714;28;20702;-44
2022/06/08 04:01:52;;;;;;;14.10;12.27;;;18.30;99.90;;;;;;5096126;28;20452;-44
2022/06/08 04:04:19;;;;;;;12.90;11.47;;;18.40;99.90;;;;;;5091988;28;20442;-46
2022/06/08 04:06:46;;;;;;;15.63;11.93;;;18.50;99.90;;;;;;5094339;28;20420;-43
2022/06/08 04:09:13;;;;;;;15.40;10.50;;;18.50;99.90;;;;;;5090856;28;20418;-45
2022/06/08 04:11:40;;;;;;;12.27;10.30;;;18.60;99.90;;;;;;5088323;28;20421;-43
2022/06/08 04:14:08;;;;;;;11.90;10.70;;;18.60;99.90;;;;;;5073648;28;20455;-45
2022/06/08 04:16:36;;;;;;;14.13;10.37;;;18.70;99.90;;;;;;5076426;28;20427;-46
2022/06/08 04:19:04;;;;;;;10.77;8.70;;;18.70;99.90;;;;;;5076555;28;20452;-50
2022/06/08 04:21:31;;;;;;;12.37;10.30;;;18.80;99.90;;;;;;5076779;28;20536;-42
2022/06/08 04:24:00;;;;;;;10.10;8.87;;;18.90;99.90;;;;;;5085045;28;20430;-48
2022/06/08 04:29:32;;;;;;;9.27;8.30;;;19.00;99.90;;;;;;5088575;28;20473;-43
2022/06/08 04:31:59;;;;;;;13.70;11.43;;;19.20;99.90;;;;;;5091268;28;20441;-45
2022/06/08 04:34:27;;;;;;;8.57;7.77;;;19.30;99.90;;;;;;5076409;28;20488;-51
2022/06/08 04:36:54;;;;;;;9.77;8.80;;;19.30;99.90;;;;;;5076296;28;20444;-48
2022/06/08 04:39:22;;;;;;;8.83;7.93;;;19.40;99.90;;;;;;5076622;28;20407;-50
2022/06/08 04:41:49;;;;;;;7.87;7.13;;;19.50;99.90;;;;;;5075391;28;20684;-47
2022/06/08 04:44:17;;;;;;;10.13;8.17;;;19.70;99.90;;;;;;5075967;28;20538;-48
2022/06/08 04:46:44;;;;;;;8.87;8.03;;;19.80;99.90;;;;;;5076312;28;20435;-46
2022/06/08 04:49:12;;;;;;;8.93;8.13;;;19.90;99.90;;;;;;5076432;28;20421;-47
2022/06/08 04:51:39;;;;;;;10.43;7.20;;;19.80;99.90;;;;;;5075499;28;20430;-48
2022/06/08 04:54:07;;;;;;;7.17;6.50;;;19.80;99.90;;;;;;5075792;28;20465;-48
2022/06/08 04:56:34;;;;;;;7.37;6.67;;;19.60;99.90;;;;;;5076155;28;20811;-46
2022/06/08 04:59:02;;;;;;;9.77;6.40;;;19.60;99.90;;;;;;5075723;28;20506;-48
2022/06/08 05:01:29;;;;;;;6.40;5.80;;;19.60;99.90;;;;;;5075250;28;20410;-47
2022/06/08 05:03:56;;;;;;;9.07;6.63;;;19.80;99.90;;;;;;5079458;28;20473;-49
2022/06/08 05:06:23;;;;;;;14.60;6.37;;;19.90;99.90;;;;;;5075445;28;20429;-47
2022/06/08 05:08:51;;;;;;;7.83;6.37;;;20.00;99.90;;;;;;5075830;28;20510;-48
2022/06/08 05:11:19;;;;;;;6.63;5.97;;;20.30;99.90;;;;;;5075044;28;20437;-48
2022/06/08 05:13:47;;;;;;;7.47;6.80;;;20.50;99.90;;;;;;5076914;28;20661;-48
2022/06/08 05:16:15;;;;;;;6.77;6.17;;;20.70;99.90;;;;;;5079289;28;20435;-49
2022/06/08 05:18:42;;;;;;;8.73;6.53;;;21.00;99.90;;;;;;5080328;28;20632;-47
2022/06/08 05:21:09;;;;;;;7.40;6.60;;;21.20;99.90;;;;;;5079726;28;20416;-51
2022/06/08 05:23:39;;;;;;;8.10;6.70;;;21.30;99.90;;;;;;5080069;28;20493;-47
2022/06/08 05:26:08;;;;;;;7.90;6.57;;;21.60;99.90;;;;;;5079689;28;20493;-43
2022/06/08 05:28:36;;;;;;;10.33;6.87;;;21.90;99.90;;;;;;5080582;28;20462;-47
2022/06/08 05:31:03;;;;;;;6.77;5.43;;;22.00;99.90;;;;;;5080058;28;20474;-47
2022/06/08 05:33:31;;;;;;;7.80;5.60;;;21.90;99.90;;;;;;5079184;28;20476;-44
2022/06/08 05:35:58;;;;;;;7.80;7.10;;;22.10;99.90;;;;;;5079631;28;20605;-49
2022/06/08 05:38:26;;;;;;;6.30;5.80;;;22.30;99.90;;;;;;5078934;28;20742;-45
2022/06/08 05:40:54;;;;;;;8.30;6.13;;;22.40;99.90;;;;;;5075373;28;20407;-47
2022/06/08 05:43:22;;;;;;;5.90;5.40;;;22.40;99.90;;;;;;5079422;28;20465;-41
2022/06/08 05:45:51;;;;;;;7.47;5.50;;;22.50;99.90;;;;;;5079987;28;20476;-44
2022/06/08 05:48:18;;;;;;;5.97;5.47;;;22.40;99.90;;;;;;5078200;28;20428;-48
2022/06/08 05:50:46;;;;;;;9.40;8.37;;;22.40;99.90;;;;;;5079409;28;20788;-49
2022/06/08 05:53:15;;;;;;;6.73;6.13;;;22.40;99.90;;;;;;5078098;28;20547;-47
2022/06/08 05:55:43;;;;;;;6.93;5.03;;;22.40;99.90;;;;;;5077322;28;20447;-47
2022/06/08 05:58:11;;;;;;;8.33;5.77;;;22.40;99.90;;;;;;5078597;28;20440;-44
2022/06/08 06:00:41;;;;;;;6.90;6.23;;;22.50;99.90;;;;;;5078209;28;20434;-47
2022/06/08 06:03:09;;;;;;;8.63;7.20;;;22.50;99.90;;;;;;5078623;28;20440;-49
2022/06/08 06:05:38;;;;;;;6.77;6.17;;;22.80;99.90;;;;;;5077165;28;20787;-46
2022/06/08 06:08:12;;;;;;;5.37;4.97;;;22.80;99.90;;;;;;5074750;28;20457;-47
2022/06/08 06:10:45;;;;;;;11.53;6.17;;;23.00;99.90;;;;;;5078745;28;20473;-52
2022/06/08 06:13:13;;;;;;;4.03;3.67;;;23.20;99.90;;;;;;5078451;28;20697;-44
2022/06/08 06:15:41;;;;;;;5.03;3.70;;;23.40;99.90;;;;;;5079392;28;20416;-49
2022/06/08 06:18:16;;;;;;;3.83;3.53;;;23.40;99.90;;;;;;5078812;28;20411;-42
2022/06/08 06:20:44;;;;;;;4.30;3.90;;;23.30;99.90;;;;;;5079157;28;20535;-43
2022/06/08 06:23:11;;;;;;;3.73;3.53;;;23.30;99.90;;;;;;5077951;28;20905;-49
2022/06/08 06:25:39;;;;;;;4.77;4.20;;;23.50;99.90;;;;;;5077545;28;20428;-47
2022/06/08 06:28:06;;;;;;;4.13;3.83;;;23.90;99.90;;;;;;5079114;28;20681;-54
2022/06/08 06:30:33;;;;;;;5.07;4.60;;;24.00;99.90;;;;;;5079964;28;20485;-47
2022/06/08 06:33:00;;;;;;;4.07;3.77;;;23.90;99.90;;;;;;5078160;28;20725;-46
2022/06/08 06:35:29;;;;;;;4.27;3.90;;;23.40;99.90;;;;;;5078087;28;20467;-47
2022/06/08 06:38:03;;;;;;;7.10;5.13;;;23.30;99.90;;;;;;5078403;28;20436;-47
2022/06/08 06:40:31;;;;;;;4.23;3.83;;;23.40;99.90;;;;;;5078358;28;20523;-44
2022/06/08 06:42:59;;;;;;;4.67;4.20;;;23.40;99.90;;;;;;5075937;28;20475;-46
2022/06/08 06:45:26;;;;;;;4.30;3.80;;;23.50;99.90;;;;;;5078229;28;20444;-53
2022/06/08 06:47:54;;;;;;;3.90;3.50;;;24.20;99.90;;;;;;5078983;28;20450;-43
2022/06/08 06:50:25;;;;;;;4.17;3.70;;;25.10;99.90;;;;;;5078072;28;20475;-46
2022/06/08 06:52:52;;;;;;;4.23;3.90;;;26.10;99.90;;;;;;5078020;28;20475;-47
2022/06/08 06:55:22;;;;;;;14.13;4.83;;;26.60;99.90;;;;;;5077751;28;20619;-43
2022/06/08 06:57:49;;;;;;;3.87;2.97;;;26.90;99.90;;;;;;5078077;28;20492;-46
2022/06/08 07:00:17;;;;;;;7.97;3.90;;;27.20;99.90;;;;;;5077022;28;20689;-46
2022/06/08 07:02:45;;;;;;;5.37;3.80;;;27.60;99.90;;;;;;5077648;28;20989;-48
2022/06/08 07:05:25;;;;;;;4.97;3.87;;;28.50;99.90;;;;;;5078118;28;20508;-49
2022/06/08 07:07:52;;;;;;;4.57;4.17;;;29.60;99.90;;;;;;5077830;28;20447;-50
2022/06/08 07:10:20;;;;;;;3.93;3.53;;;31.00;96.30;;;;;;5077560;28;20793;-47
2022/06/08 07:12:48;;;;;;;5.03;4.50;;;32.10;92.20;;;;;;5077481;28;20487;-49
2022/06/08 07:15:19;;;;;;;6.70;3.67;;;33.50;85.20;;;;;;5077370;28;20442;-49
2022/06/08 07:17:46;;;;;;;3.93;3.57;;;34.00;80.70;;;;;;5077384;28;20447;-46
2022/06/08 07:20:14;;;;;;;4.80;4.00;;;34.00;81.60;;;;;;5077465;28;20435;-45
2022/06/08 07:22:42;;;;;;;4.53;3.70;;;34.50;75.60;;;;;;5077262;28;20463;-46
2022/06/08 07:25:10;;;;;;;4.77;4.23;;;34.70;72.80;;;;;;5077573;28;20624;-44
2022/06/08 07:27:38;;;;;;;3.97;3.57;;;33.50;73.40;;;;;;5076569;28;20478;-44
2022/06/08 07:30:07;;;;;;;4.83;4.00;;;34.70;71.30;;;;;;5077341;28;20531;-45
2022/06/08 07:32:35;;;;;;;4.60;4.00;;;35.20;68.90;;;;;;5076777;28;20462;-48
2022/06/08 07:35:05;;;;;;;4.80;4.40;;;37.10;64.90;;;;;;5076923;28;20487;-51
2022/06/08 07:37:32;;;;;;;4.93;4.53;;;38.20;60.10;;;;;;5069246;28;20443;-46
2022/06/08 07:39:59;;;;;;;9.67;6.20;;;38.50;59.60;;;;;;5076950;28;20698;-47
2022/06/08 07:42:26;;;;;;;3.90;3.60;;;37.70;60.50;;;;;;5077167;28;20646;-47
2022/06/08 07:44:54;;;;;;;6.23;4.40;;;37.70;62.00;;;;;;5079198;28;20450;-50
2022/06/08 07:47:21;;;;;;;4.43;4.00;;;37.40;60.70;;;;;;5078818;28;20706;-48
2022/06/08 07:49:51;;;;;;;5.37;4.80;;;38.30;57.90;;;;;;5078851;28;20430;-46
2022/06/08 07:52:21;;;;;;;7.53;4.77;;;38.50;58.80;;;;;;5076682;28;20457;-47
2022/06/08 07:54:50;;;;;;;6.90;4.90;;;39.20;57.50;;;;;;5076997;28;20562;-48
2022/06/08 07:57:26;;;;;;;4.50;4.10;;;38.70;59.70;;;;;;5076726;28;20878;-46
2022/06/08 07:59:53;;;;;;;5.03;3.90;;;37.90;58.80;;;;;;5077120;28;20434;-49
2022/06/08 08:02:20;;;;;;;3.80;3.50;;;36.70;59.90;;;;;;5076107;28;20447;-47
2022/06/08 08:04:48;;;;;;;9.07;4.30;;;36.00;62.30;;;;;;5076996;28;20486;-45
2022/06/08 08:07:15;;;;;;;5.23;4.83;;;34.80;63.80;;;;;;5075672;28;20470;-46
2022/06/08 08:09:43;;;;;;;6.30;5.90;;;34.20;64.80;;;;;;5076671;28;20593;-49
2022/06/08 08:12:12;;;;;;;5.40;4.90;;;34.50;68.40;;;;;;5075587;28;20448;-46
2022/06/08 08:14:40;;;;;;;5.27;4.77;;;33.40;68.60;;;;;;5076461;28;20558;-46
2022/06/08 08:17:08;;;;;;;5.30;4.90;;;33.90;67.70;;;;;;5077733;28;20670;-52
2022/06/08 08:19:39;;;;;;;6.40;5.80;;;34.50;68.70;;;;;;5080285;28;20436;-52
2022/06/08 08:22:09;;;;;;;7.90;6.37;;;34.70;67.60;;;;;;5080002;28;20439;-48
2022/06/08 08:24:36;;;;;;;9.77;6.13;;;34.70;66.90;;;;;;5078730;28;20734;-48
2022/06/08 08:27:04;;;;;;;6.80;6.17;;;33.00;69.90;;;;;;5076489;28;20436;-45
2022/06/08 08:29:31;;;;;;;8.03;6.30;;;31.10;76.60;;;;;;5076010;28;20445;-46
2022/06/08 08:31:58;;;;;;;8.07;6.37;;;29.70;83.60;;;;;;5076481;28;20444;-47
2022/06/08 08:34:25;;;;;;;5.90;5.40;;;30.00;86.30;;;;;;5074992;28;20487;-46
2022/06/08 08:36:53;;;;;;;7.00;5.97;;;29.70;87.50;;;;;;5076307;28;20436;-45
2022/06/08 08:39:20;;;;;;;9.57;6.83;;;29.00;91.20;;;;;;5075835;28;20432;-44
2022/06/08 08:44:34;;;;;;;5.50;4.97;;;28.70;92.00;;;;;;5075612;28;20837;-46
2022/06/08 08:47:12;;;;;;;6.43;5.60;;;29.70;90.80;;;;;;5076555;28;21217;-45
2022/06/08 08:49:45;;;;;;;5.43;4.87;;;29.90;89.50;;;;;;5068602;28;20501;-49
2022/06/08 08:52:25;;;;;;;4.60;4.17;;;30.50;86.10;;;;;;5075586;28;20503;-47
2022/06/08 08:55:09;;;;;;;4.13;3.83;;;30.30;85.70;;;;;;5076195;28;20477;-46
2022/06/08 08:58:10;;;;;;;5.27;4.20;;;29.90;86.50;;;;;;5074010;28;20427;-47
2022/06/08 09:00:38;;;;;;;4.80;3.93;;;29.90;89.80;;;;;;5072462;28;20448;-48
2022/06/08 09:03:39;;;;;;;7.60;4.13;;;30.80;86.10;;;;;;5076115;28;20527;-48
2022/06/08 09:06:15;;;;;;;3.93;3.63;;;31.20;78.80;;;;;;5075424;28;20494;-52
2022/06/08 09:08:45;;;;;;;3.47;3.17;;;30.60;80.60;;;;;;5076614;28;20438;-49
2022/06/08 09:11:17;;;;;;;2.70;2.50;;;30.40;78.50;;;;;;5076406;28;20455;-51
2022/06/08 09:13:52;;;;;;;5.73;2.93;;;30.00;80.40;;;;;;5069535;28;20495;-47
2022/06/08 09:16:37;;;;;;;3.00;2.80;;;30.00;81.10;;;;;;5076064;28;20442;-46
2022/06/08 09:19:32;;;;;;;5.20;2.80;;;29.40;83.60;;;;;;5072089;28;20836;-44
2022/06/08 09:22:38;;;;;;;3.77;3.00;;;28.40;85.50;;;;;;5075602;28;20440;-45
2022/06/08 09:25:41;;;;;;;2.93;2.73;;;27.90;87.30;;;;;;5071837;28;20469;-50
2022/06/08 09:28:26;;;;;;;2.87;2.63;;;28.20;86.90;;;;;;5063896;28;20460;-47
2022/06/08 09:30:53;;;;;;;3.30;3.00;;;27.60;87.50;;;;;;5070958;28;20696;-48
2022/06/08 09:33:36;;;;;;;3.80;3.20;;;27.10;89.50;;;;;;5075255;28;20489;-49
2022/06/08 09:36:22;;;;;;;3.87;3.30;;;27.70;88.80;;;;;;5075853;28;20439;-46
2022/06/08 09:38:49;;;;;;;4.10;2.97;;;27.80;87.40;;;;;;5074828;28;20783;-47
2022/06/08 09:41:20;;;;;;;6.20;2.97;;;27.60;89.40;;;;;;5076298;28;20517;-47
2022/06/08 09:44:27;;;;;;;3.80;3.50;;;27.70;90.20;;;;;;5075740;28;20524;-49
2022/06/08 09:53:15;;;;;;;4.77;2.77;;;28.90;85.70;;;;;;5071210;28;20466;-48
2022/06/08 09:55:48;;;;;;;2.47;2.27;;;28.50;84.00;;;;;;5072104;28;20651;-44
2022/06/08 09:58:55;;;;;;;2.47;2.27;;;27.80;84.80;;;;;;5075499;28;20448;-48
2022/06/08 10:01:57;;;;;;;3.00;2.80;;;27.70;86.30;;;;;;5078656;28;20423;-50
2022/06/08 10:04:32;;;;;;;3.00;2.70;;;28.00;87.20;;;;;;5078851;28;20788;-48
2022/06/08 10:07:19;;;;;;;2.90;2.60;;;27.90;89.20;;;;;;5079203;28;20442;-48
2022/06/08 10:10:37;;;;;;;2.30;2.10;;;27.70;88.10;;;;;;5075049;28;20459;-48
2022/06/08 10:13:20;;;;;;;2.50;2.40;;;26.80;91.20;;;;;;5076236;28;20815;-46
2022/06/08 10:16:02;;;;;;;6.00;3.80;;;27.00;90.60;;;;;;5079491;28;20437;-43
2022/06/08 10:19:13;;;;;;;5.33;2.20;;;27.10;90.50;;;;;;5075878;28;20955;-44
2022/06/08 10:21:44;;;;;;;2.70;2.30;;;27.30;90.20;;;;;;5068030;28;20453;-46
2022/06/08 10:24:40;;;;;;;2.60;2.40;;;27.20;89.70;;;;;;5066243;28;20568;-48
2022/06/08 10:27:13;;;;;;;3.23;2.37;;;27.00;90.50;;;;;;5068517;28;20475;-45
2022/06/08 10:29:49;;;;;;;3.27;3.00;;;26.50;90.80;;;;;;5078447;28;20448;-48
2022/06/08 10:32:39;;;;;;;4.73;3.10;;;26.50;91.20;;;;;;5078602;28;20432;-46
2022/06/08 10:35:16;;;;;;;3.00;2.80;;;26.30;91.30;;;;;;5077895;28;20471;-49
2022/06/08 10:37:44;;;;;;;8.20;3.10;;;26.00;90.90;;;;;;5079189;28;20510;-49
2022/06/08 10:40:22;;;;;;;3.57;2.50;;;26.60;91.50;;;;;;5077725;28;20440;-49
2022/06/08 10:42:51;;;;;;;2.60;2.40;;;26.40;91.00;;;;;;5078509;28;20462;-45
2022/06/08 10:45:27;;;;;;;2.17;2.07;;;26.10;92.70;;;;;;5078066;28;20421;-44
2022/06/08 10:47:57;;;;;;;5.27;2.70;;;26.40;91.90;;;;;;5078889;28;21485;-45
2022/06/08 10:50:32;;;;;;;5.37;2.93;;;26.80;91.50;;;;;;5077593;28;20472;-48
2022/06/08 10:56:26;;;;;;;2.57;2.37;;;26.50;91.30;;;;;;5077194;28;20440;-49
2022/06/08 10:59:04;;;;;;;2.67;2.47;;;26.40;91.20;;;;;;5078185;28;20444;-46
2022/06/08 11:01:49;;;;;;;2.03;1.93;;;26.90;90.20;;;;;;5070011;28;20510;-45
2022/06/08 11:04:29;;;;;;;1.83;1.73;;;26.50;88.50;;;;;;5077317;28;20815;-46
2022/06/08 11:07:11;;;;;;;2.80;2.50;;;26.60;88.50;;;;;;5079051;28;20478;-45
2022/06/08 11:09:39;;;;;;;2.63;2.43;;;26.50;88.20;;;;;;5077403;28;20616;-44
2022/06/08 11:12:12;;;;;;;4.30;2.10;;;26.00;90.10;;;;;;5077035;28;20647;-50
2022/06/08 11:14:48;;;;;;;3.33;1.77;;;26.10;87.80;;;;;;5077641;28;20483;-47
2022/06/08 11:17:57;;;;;;;2.20;2.00;;;26.40;83.20;;;;;;5077957;28;20641;-47
2022/06/08 11:20:38;;;;;;;1.83;1.70;;;27.10;82.50;;;;;;5077919;28;20451;-44
2022/06/08 11:23:14;;;;;;;2.73;2.50;;;27.20;82.80;;;;;;5077125;28;20453;-46
2022/06/08 11:26:07;;;;;;;2.60;2.20;;;26.90;81.10;;;;;;5071263;28;20461;-47
2022/06/08 11:28:43;;;;;;;3.87;2.43;;;26.90;81.60;;;;;;5074498;28;20701;-47
2022/06/08 11:31:32;;;;;;;2.53;2.33;;;26.70;84.90;;;;;;5077518;28;20666;-44
2022/06/08 11:34:21;;;;;;;3.03;2.20;;;26.60;83.90;;;;;;5076830;28;20629;-49
2022/06/08 11:37:15;;;;;;;2.20;2.00;;;26.90;78.90;;;;;;5071888;28;20437;-46
2022/06/08 11:40:10;;;;;;;5.93;2.20;;;27.10;80.40;;;;;;5070810;28;20468;-45
2022/06/08 11:42:45;;;;;;;1.57;1.47;;;26.40;78.70;;;;;;5070231;28;20472;-45
2022/06/08 11:45:34;;;;;;;1.63;1.53;;;26.20;79.20;;;;;;5077076;28;20468;-49
2022/06/08 11:48:08;;;;;;;3.00;2.47;;;26.50;80.40;;;;;;5073944;28;20440;-45
2022/06/08 11:50:41;;;;;;;2.17;2.07;;;26.60;79.50;;;;;;5072902;28;20447;-45
2022/06/08 11:53:28;;;;;;;1.93;1.83;;;27.10;79.90;;;;;;5076969;28;20801;-45
2022/06/08 11:56:15;;;;;;;3.97;1.97;;;27.30;77.90;;;;;;5077325;28;20835;-46
2022/06/08 11:58:52;;;;;;;1.80;1.70;;;27.10;75.60;;;;;;5071965;28;20448;-48
2022/06/08 12:01:48;;;;;;;3.47;1.90;;;27.60;76.70;;;;;;5076388;28;20513;-45
2022/06/08 12:04:22;;;;;;;1.60;1.50;;;27.70;77.30;;;;;;5078676;28;20525;-45
2022/06/08 12:06:51;;;;;;;1.70;1.60;;;27.70;78.40;;;;;;5077032;28;20437;-47
2022/06/08 12:09:23;;;;;;;2.07;1.90;;;27.30;74.10;;;;;;5076640;28;20450;-44
2022/06/08 12:11:58;;;;;;;1.97;1.87;;;27.00;73.50;;;;;;5076670;28;20438;-46
2022/06/08 12:14:35;;;;;;;1.87;1.77;;;27.00;73.10;;;;;;5075995;28;20489;-46
2022/06/08 12:17:16;;;;;;;2.73;2.10;;;27.40;72.60;;;;;;5076860;28;20650;-47
2022/06/08 12:19:58;;;;;;;3.33;1.93;;;27.20;73.30;;;;;;5070434;28;20797;-49
2022/06/08 12:22:29;;;;;;;2.80;2.10;;;27.50;73.20;;;;;;5075903;28;20463;-47
2022/06/08 12:25:22;;;;;;;2.27;2.07;;;27.40;70.70;;;;;;5075867;28;20712;-51
2022/06/08 12:28:00;;;;;;;2.07;1.97;;;28.00;73.30;;;;;;5077025;28;20448;-47
2022/06/08 12:30:34;;;;;;;6.93;2.20;;;28.50;73.20;;;;;;5075656;28;20509;-47
2022/06/08 12:33:13;;;;;;;6.50;2.10;;;29.00;70.80;;;;;;5076151;28;20873;-49
2022/06/08 12:35:53;;;;;;;4.60;3.33;;;29.10;70.90;;;;;;5075317;28;20475;-46
2022/06/08 12:38:26;;;;;;;3.93;1.90;;;28.80;72.70;;;;;;5077799;28;20446;-50
2022/06/08 12:41:14;;;;;;;2.00;1.90;;;27.80;75.70;;;;;;5073548;28;20781;-49
2022/06/08 12:43:51;;;;;;;1.97;1.87;;;27.50;76.90;;;;;;5073445;28;20475;-49
2022/06/08 12:46:26;;;;;;;2.70;2.50;;;27.60;77.80;;;;;;5075493;28;20439;-45
2022/06/08 12:48:54;;;;;;;6.13;2.60;;;27.30;83.80;;;;;;5076302;28;20492;-45
2022/06/08 12:51:25;;;;;;;3.17;2.93;;;27.60;89.00;;;;;;5075819;28;20442;-47
2022/06/08 12:53:52;;;;;;;3.40;3.10;;;27.40;91.20;;;;;;5075558;28;20469;-46
2022/06/08 12:56:19;;;;;;;5.67;3.37;;;27.40;93.20;;;;;;5075633;28;20657;-45
2022/06/08 12:58:47;;;;;;;5.20;4.10;;;26.80;95.00;;;;;;5075602;28;20503;-50
2022/06/08 13:01:15;;;;;;;4.67;3.27;;;26.90;95.10;;;;;;5074948;28;20471;-45
2022/06/08 13:03:44;;;;;;;3.37;3.07;;;26.70;96.60;;;;;;5074774;28;20667;-45
2022/06/08 13:06:11;;;;;;;3.20;2.90;;;26.80;97.00;;;;;;5075525;28;20442;-48
2022/06/08 13:08:38;;;;;;;7.10;3.53;;;27.00;96.10;;;;;;5076619;28;20450;-45
2022/06/08 13:11:14;;;;;;;4.70;3.30;;;26.70;96.60;;;;;;5075819;28;20514;-44
2022/06/08 13:13:42;;;;;;;4.93;4.53;;;26.40;97.40;;;;;;5071745;28;20455;-50
2022/06/08 13:16:17;;;;;;;4.10;3.07;;;26.40;97.00;;;;;;5079785;28;20783;-50
2022/06/08 13:18:44;;;;;;;7.07;3.40;;;26.70;97.40;;;;;;5079351;28;20593;-47
2022/06/08 13:21:12;;;;;;;2.97;2.77;;;26.50;97.00;;;;;;5077811;28;20449;-47
2022/06/08 13:23:40;;;;;;;3.07;2.87;;;26.30;96.80;;;;;;5076156;28;20529;-44
2022/06/08 13:26:23;;;;;;;4.00;3.70;;;26.20;96.70;;;;;;5076549;28;20443;-47
2022/06/08 13:28:52;;;;;;;3.77;3.47;;;26.10;97.40;;;;;;5076059;28;20446;-53
2022/06/08 13:31:26;;;;;;;4.83;2.50;;;26.00;97.10;;;;;;5075932;28;20440;-47
2022/06/08 13:33:56;;;;;;;2.93;2.70;;;26.30;97.30;;;;;;5076255;28;20462;-47
2022/06/08 13:36:31;;;;;;;2.97;2.70;;;26.40;97.00;;;;;;5078738;28;20462;-52